Time;durP1;ratioP1;P1;durP2;ratioP2;P2;SDS_P1;SDS_P2;PMS_P1;PMS_P2;Temp;Humidity;BMP_temperature;BMP_pressure;BME280_temperature;BME280_humidity;BME280_pressure;Samples;Min_cycle;Max_cycle;Signal;HPM_P1;HPM_P2
2022/08/05 00:01:21;;;;;;;3.13;2.00;;;20.30;80.90;;;;;;5052909;28;20120;-39
2022/08/05 00:03:47;;;;;;;4.18;2.15;;;20.40;80.20;;;;;;5052852;28;20025;-38
2022/08/05 00:06:14;;;;;;;2.85;2.55;;;20.40;80.00;;;;;;5051609;28;20048;-38
2022/08/05 00:08:40;;;;;;;5.28;2.45;;;20.50;80.00;;;;;;5052744;28;20033;-38
2022/08/05 00:11:08;;;;;;;5.03;2.05;;;20.50;79.50;;;;;;5053197;28;20029;-37
2022/08/05 00:13:36;;;;;;;6.68;2.00;;;20.50;79.60;;;;;;5052733;28;20056;-37
2022/08/05 00:16:02;;;;;;;4.18;1.50;;;20.40;79.20;;;;;;5052865;28;20100;-39
2022/08/05 00:18:28;;;;;;;2.40;2.20;;;20.50;79.10;;;;;;5051633;28;20029;-38
2022/08/05 00:20:54;;;;;;;3.47;2.53;;;20.50;79.00;;;;;;5053254;28;20025;-39
2022/08/05 00:23:20;;;;;;;5.85;2.67;;;20.50;79.00;;;;;;5056665;28;20094;-39
2022/08/05 00:25:46;;;;;;;3.28;2.10;;;20.50;78.90;;;;;;5055932;28;20376;-38
2022/08/05 00:28:13;;;;;;;3.33;2.10;;;20.50;79.20;;;;;;5056514;28;20108;-38
2022/08/05 00:30:39;;;;;;;3.50;1.88;;;20.50;79.00;;;;;;5056280;28;20373;-38
2022/08/05 00:33:04;;;;;;;7.80;2.55;;;20.50;79.00;;;;;;5056048;28;20044;-38
2022/08/05 00:35:30;;;;;;;5.43;2.38;;;20.50;79.00;;;;;;5054844;28;20147;-38
2022/08/05 00:37:56;;;;;;;2.50;2.08;;;20.50;79.00;;;;;;5056071;28;20021;-38
2022/08/05 00:40:24;;;;;;;7.65;2.30;;;20.50;79.00;;;;;;5055884;28;20029;-39
2022/08/05 00:42:50;;;;;;;3.63;2.17;;;20.40;78.90;;;;;;5055939;28;20052;-38
2022/08/05 00:45:15;;;;;;;2.42;2.20;;;20.50;78.70;;;;;;5054478;28;20060;-39
2022/08/05 00:47:41;;;;;;;3.08;1.83;;;20.40;78.70;;;;;;5055733;28;20033;-38
2022/08/05 00:50:08;;;;;;;4.22;1.95;;;20.40;79.00;;;;;;5056355;28;20105;-38
2022/08/05 00:52:34;;;;;;;4.28;2.15;;;20.30;78.90;;;;;;5056072;28;20080;-39
2022/08/05 00:54:59;;;;;;;3.95;2.22;;;20.30;79.30;;;;;;5054233;28;20436;-38
2022/08/05 00:57:25;;;;;;;5.20;2.42;;;20.30;79.80;;;;;;5055560;28;20100;-37
2022/08/05 00:59:51;;;;;;;4.72;2.88;;;20.20;80.00;;;;;;5054084;28;20021;-37
2022/08/05 01:02:16;;;;;;;5.15;2.33;;;20.20;80.10;;;;;;5055265;28;20021;-38
2022/08/05 01:04:42;;;;;;;3.60;2.15;;;20.10;80.30;;;;;;5055294;28;20116;-39
2022/08/05 01:07:08;;;;;;;5.55;2.72;;;20.10;80.40;;;;;;5055074;28;20056;-38
2022/08/05 01:09:34;;;;;;;6.57;2.33;;;20.10;80.50;;;;;;5053752;28;20025;-41
2022/08/05 01:12:05;;;;;;;8.40;2.10;;;20.20;80.50;;;;;;5055041;28;20156;-38
2022/08/05 01:14:43;;;;;;;5.05;3.35;;;20.20;80.70;;;;;;5055045;28;20345;-38
2022/08/05 01:17:46;;;;;;;3.42;2.83;;;20.20;81.10;;;;;;5055442;28;20052;-38
2022/08/05 01:20:49;;;;;;;8.65;3.25;;;20.10;81.70;;;;;;5055081;28;20032;-38
2022/08/05 01:23:22;;;;;;;5.75;2.53;;;19.90;82.10;;;;;;5055044;28;20071;-38
2022/08/05 01:26:41;;;;;;;8.90;3.03;;;19.90;82.40;;;;;;5055265;28;20052;-38
2022/08/05 01:29:15;;;;;;;5.22;3.03;;;19.90;82.20;;;;;;5053688;28;20100;-38
2022/08/05 01:31:48;;;;;;;5.22;3.20;;;19.90;82.00;;;;;;5054849;28;20020;-38
2022/08/05 01:34:19;;;;;;;6.05;2.47;;;19.80;81.90;;;;;;5054803;28;20041;-42
2022/08/05 01:37:02;;;;;;;4.90;2.63;;;19.70;82.00;;;;;;5055034;28;20166;-39
2022/08/05 01:39:29;;;;;;;4.10;2.72;;;19.50;82.30;;;;;;5054791;28;20381;-39
2022/08/05 01:41:57;;;;;;;5.13;3.42;;;19.40;82.60;;;;;;5054890;28;20024;-40
2022/08/05 01:44:24;;;;;;;4.60;3.33;;;19.40;82.80;;;;;;5055171;28;20032;-39
2022/08/05 01:46:52;;;;;;;4.13;2.88;;;19.40;82.50;;;;;;5054859;28;20381;-38
2022/08/05 01:49:22;;;;;;;6.30;3.17;;;19.50;82.30;;;;;;5055116;28;20132;-38
2022/08/05 01:51:49;;;;;;;7.78;3.20;;;19.50;82.10;;;;;;5054936;28;20032;-38
2022/08/05 01:54:16;;;;;;;4.63;3.20;;;19.60;82.20;;;;;;5053482;28;20056;-38
2022/08/05 01:56:42;;;;;;;5.70;3.45;;;19.50;82.30;;;;;;5054780;28;20487;-38
2022/08/05 01:59:14;;;;;;;5.80;3.45;;;19.50;82.30;;;;;;5054578;28;20040;-39
2022/08/05 02:01:41;;;;;;;6.28;3.72;;;19.50;82.60;;;;;;5054606;28;20017;-39
2022/08/05 02:04:09;;;;;;;6.40;3.53;;;19.40;82.50;;;;;;5053077;28;20393;-38
2022/08/05 02:06:36;;;;;;;3.47;3.00;;;19.40;82.60;;;;;;5054310;28;20021;-39
2022/08/05 02:09:02;;;;;;;8.82;3.65;;;19.40;82.30;;;;;;5054252;28;20103;-39
2022/08/05 02:11:39;;;;;;;5.38;3.42;;;19.50;82.20;;;;;;5054191;28;20021;-38
2022/08/05 02:14:11;;;;;;;4.82;3.33;;;19.50;82.10;;;;;;5054384;28;20025;-38
2022/08/05 02:16:45;;;;;;;6.90;3.95;;;19.40;82.30;;;;;;5054376;28;20069;-38
2022/08/05 02:19:14;;;;;;;6.75;4.18;;;19.30;82.50;;;;;;5054369;28;20049;-39
2022/08/05 02:22:05;;;;;;;8.70;3.83;;;19.30;82.70;;;;;;5054245;28;20021;-40
2022/08/05 02:24:36;;;;;;;6.65;4.15;;;19.30;83.00;;;;;;5048827;28;20071;-40
2022/08/05 02:27:05;;;;;;;5.93;3.42;;;19.30;83.20;;;;;;5053935;28;20036;-39
2022/08/05 02:29:34;;;;;;;4.53;3.63;;;19.40;82.80;;;;;;5054085;28;20037;-40
2022/08/05 02:32:01;;;;;;;4.70;4.00;;;19.40;82.60;;;;;;5053944;28;20021;-38
2022/08/05 02:34:31;;;;;;;10.40;4.95;;;19.40;82.40;;;;;;5053740;28;20076;-40
2022/08/05 02:37:02;;;;;;;13.30;4.60;;;19.50;82.10;;;;;;5054616;28;20028;-40
2022/08/05 02:39:34;;;;;;;7.10;4.38;;;19.50;82.10;;;;;;5052984;28;20029;-39
2022/08/05 02:42:02;;;;;;;12.38;5.10;;;19.60;81.60;;;;;;5054364;28;20029;-39
2022/08/05 02:44:30;;;;;;;10.10;4.63;;;19.60;81.50;;;;;;5053412;28;20020;-40
2022/08/05 02:46:57;;;;;;;7.72;4.43;;;19.60;81.80;;;;;;5053605;28;20480;-40
2022/08/05 02:49:26;;;;;;;5.75;4.88;;;19.60;82.40;;;;;;5053509;28;20112;-38
2022/08/05 02:51:52;;;;;;;11.43;4.80;;;19.60;83.00;;;;;;5053789;28;20104;-38
2022/08/05 02:54:20;;;;;;;8.05;5.18;;;19.40;83.30;;;;;;5053306;28;20032;-38
2022/08/05 02:56:47;;;;;;;11.38;5.30;;;19.40;83.60;;;;;;5053367;28;20029;-42
2022/08/05 02:59:17;;;;;;;11.32;5.35;;;19.20;84.20;;;;;;5053752;28;20024;-38
2022/08/05 03:01:44;;;;;;;12.20;5.10;;;19.10;85.10;;;;;;5052037;28;20111;-38
2022/08/05 03:04:13;;;;;;;7.35;5.40;;;19.00;85.80;;;;;;5053183;28;20412;-39
2022/08/05 03:06:41;;;;;;;8.97;5.87;;;18.90;85.70;;;;;;5053280;28;20020;-38
2022/08/05 03:09:10;;;;;;;12.50;5.70;;;18.80;86.60;;;;;;5053390;28;20074;-38
2022/08/05 03:11:35;;;;;;;8.40;5.78;;;18.80;87.00;;;;;;5052996;28;20412;-37
2022/08/05 03:14:01;;;;;;;8.23;6.40;;;18.60;87.60;;;;;;5051714;28;20035;-37
2022/08/05 03:16:27;;;;;;;11.80;6.75;;;18.40;88.20;;;;;;5051718;28;20029;-38
2022/08/05 03:18:52;;;;;;;11.73;6.78;;;18.40;88.80;;;;;;5052964;28;20021;-38
2022/08/05 03:21:18;;;;;;;9.20;7.03;;;18.30;89.10;;;;;;5053035;28;20412;-38
2022/08/05 03:23:44;;;;;;;10.85;7.40;;;18.30;89.40;;;;;;5051748;28;20116;-38
2022/08/05 03:26:10;;;;;;;14.38;7.22;;;18.20;89.60;;;;;;5053184;28;20025;-38
2022/08/05 03:28:37;;;;;;;13.10;8.93;;;18.10;89.60;;;;;;5051953;28;20030;-38
2022/08/05 03:31:03;;;;;;;12.38;7.03;;;18.20;90.00;;;;;;5053118;28;20028;-39
2022/08/05 03:33:30;;;;;;;15.20;9.18;;;18.10;90.20;;;;;;5053152;28;20017;-38
2022/08/05 03:35:57;;;;;;;12.27;7.43;;;18.10;90.60;;;;;;5053204;28;20516;-38
2022/08/05 03:38:24;;;;;;;13.57;8.20;;;18.30;90.50;;;;;;5053093;28;20032;-38
2022/08/05 03:40:52;;;;;;;12.43;7.97;;;18.30;90.40;;;;;;5052704;28;20164;-38
2022/08/05 03:43:18;;;;;;;16.20;8.05;;;18.40;91.00;;;;;;5052879;28;20493;-38
2022/08/05 03:45:43;;;;;;;19.50;9.45;;;18.40;90.70;;;;;;5051293;28;20111;-39
2022/08/05 03:48:09;;;;;;;11.90;8.38;;;18.30;90.70;;;;;;5052682;28;20128;-39
2022/08/05 03:50:59;;;;;;;11.07;7.88;;;18.30;90.90;;;;;;5052894;28;20040;-38
2022/08/05 03:54:05;;;;;;;21.95;10.85;;;18.30;90.80;;;;;;5053052;28;20448;-39
2022/08/05 03:56:40;;;;;;;14.52;7.47;;;18.30;91.00;;;;;;5053986;28;20056;-38
2022/08/05 03:59:12;;;;;;;12.05;7.28;;;18.30;91.00;;;;;;5056954;28;20021;-38
2022/08/05 19:36:30;;;;;;;2.55;2.00;;;18.80;55.20;;;;;;5070694;28;20409;-40
2022/08/05 19:38:57;;;;;;;2.50;1.40;;;18.80;55.40;;;;;;5068961;28;20020;-39
2022/08/05 19:41:23;;;;;;;3.00;1.80;;;18.80;55.70;;;;;;5070069;28;20088;-38
2022/08/05 19:43:48;;;;;;;1.92;1.13;;;18.80;55.60;;;;;;5070864;28;20413;-39
2022/08/05 19:46:14;;;;;;;3.03;1.02;;;18.80;55.50;;;;;;5070588;28;20063;-40
2022/08/05 19:48:40;;;;;;;1.08;0.80;;;18.80;55.80;;;;;;5070307;28;20421;-39
2022/08/05 19:51:06;;;;;;;1.73;0.70;;;18.80;56.10;;;;;;5070228;28;20486;-38
2022/08/05 19:53:31;;;;;;;4.10;1.05;;;18.80;56.10;;;;;;5070011;28;20033;-38
2022/08/05 19:55:57;;;;;;;6.55;1.08;;;18.80;56.30;;;;;;5070989;28;20078;-39
2022/08/05 19:58:24;;;;;;;2.78;1.65;;;18.80;56.50;;;;;;5069253;28;20060;-38
2022/08/05 20:00:49;;;;;;;2.85;0.80;;;18.80;56.70;;;;;;5070734;28;20017;-39
2022/08/05 20:03:15;;;;;;;6.05;1.00;;;18.70;56.90;;;;;;5071012;28;20028;-38
2022/08/05 20:05:55;;;;;;;3.05;1.20;;;18.70;56.90;;;;;;5074523;28;20102;-40
2022/08/05 20:08:21;;;;;;;4.95;1.65;;;18.60;57.30;;;;;;5064722;28;20036;-39
2022/08/05 20:10:47;;;;;;;4.45;1.20;;;18.50;57.40;;;;;;5069988;28;20025;-39
2022/08/05 20:13:13;;;;;;;5.05;0.93;;;18.50;57.30;;;;;;5068869;28;20028;-39
2022/08/05 20:15:38;;;;;;;5.38;0.88;;;18.50;57.70;;;;;;5070573;28;20064;-40
2022/08/05 20:18:05;;;;;;;2.45;1.08;;;18.30;57.80;;;;;;5070623;28;20088;-39
2022/08/05 20:20:31;;;;;;;3.42;1.13;;;18.30;58.00;;;;;;5069624;28;20017;-38
2022/08/05 20:22:57;;;;;;;4.07;2.30;;;18.30;58.10;;;;;;5068808;28;20361;-38
2022/08/05 20:25:23;;;;;;;4.43;1.17;;;18.30;58.30;;;;;;5069740;28;20025;-40
2022/08/05 20:27:48;;;;;;;2.35;1.05;;;18.20;58.50;;;;;;5070275;28;20024;-41
2022/08/05 20:30:14;;;;;;;0.93;0.65;;;18.20;58.60;;;;;;5069666;28;20468;-39
2022/08/05 20:32:39;;;;;;;3.38;0.88;;;18.20;58.60;;;;;;5067860;28;20032;-39
2022/08/05 20:35:05;;;;;;;2.13;1.00;;;18.20;58.50;;;;;;5069316;28;20125;-38
2022/08/05 20:37:31;;;;;;;3.05;0.88;;;18.10;58.60;;;;;;5069151;28;20021;-38
2022/08/05 20:39:57;;;;;;;2.70;0.73;;;18.00;58.90;;;;;;5068792;28;20373;-39
2022/08/05 20:42:23;;;;;;;1.25;0.90;;;18.00;58.90;;;;;;5069356;28;20063;-39
2022/08/05 20:44:48;;;;;;;2.33;1.42;;;17.90;59.40;;;;;;5068964;28;20033;-39
2022/08/05 20:47:15;;;;;;;3.50;1.02;;;17.80;59.50;;;;;;5058987;28;20021;-39
2022/08/05 20:49:40;;;;;;;2.53;1.10;;;17.80;59.80;;;;;;5054331;28;20025;-39
2022/08/05 20:52:07;;;;;;;2.60;0.93;;;17.80;59.80;;;;;;5054220;28;20029;-39
2022/08/05 20:54:33;;;;;;;2.30;1.15;;;17.80;59.80;;;;;;5055378;28;20056;-38
2022/08/05 20:56:59;;;;;;;5.28;1.25;;;17.70;60.00;;;;;;5055536;28;20029;-38
2022/08/05 20:59:24;;;;;;;3.95;1.77;;;17.70;60.10;;;;;;5055664;28;20025;-40
2022/08/05 21:01:50;;;;;;;1.13;1.02;;;17.70;60.40;;;;;;5054106;28;20373;-39
2022/08/05 21:04:17;;;;;;;3.70;1.13;;;17.60;60.40;;;;;;5054395;28;20461;-38
2022/08/05 21:06:42;;;;;;;1.95;1.38;;;17.50;60.70;;;;;;5055499;28;20422;-39
2022/08/05 21:09:08;;;;;;;1.27;0.98;;;17.50;61.00;;;;;;5055743;28;20017;-45
2022/08/05 21:11:34;;;;;;;3.60;1.20;;;17.50;61.10;;;;;;5055459;28;20021;-38
2022/08/05 21:13:59;;;;;;;4.63;1.00;;;17.50;60.90;;;;;;5055270;28;20330;-39
2022/08/05 21:16:26;;;;;;;4.35;0.90;;;17.50;61.10;;;;;;5055885;28;20024;-38
2022/08/05 21:18:57;;;;;;;6.32;1.27;;;17.50;60.90;;;;;;5054671;28;20084;-39
2022/08/05 21:21:24;;;;;;;2.40;0.73;;;17.50;61.30;;;;;;5055036;28;20102;-39
2022/08/05 21:23:50;;;;;;;0.70;0.70;;;17.40;61.40;;;;;;5055386;28;20029;-41
2022/08/05 21:26:15;;;;;;;2.38;0.82;;;17.30;61.50;;;;;;5054953;28;20343;-40
2022/08/05 21:28:41;;;;;;;2.63;1.17;;;17.30;61.70;;;;;;5055367;28;20079;-38
2022/08/05 21:31:07;;;;;;;5.78;1.00;;;17.30;61.80;;;;;;5054536;28;20449;-39
2022/08/05 21:33:33;;;;;;;4.82;1.23;;;17.30;61.70;;;;;;5054881;28;20060;-39
2022/08/05 21:35:59;;;;;;;1.92;0.90;;;17.30;62.10;;;;;;5054595;28;20132;-38
2022/08/05 21:38:25;;;;;;;3.30;1.25;;;17.20;62.10;;;;;;5054570;28;20053;-39
2022/08/05 21:40:51;;;;;;;2.85;1.80;;;17.20;62.10;;;;;;5054887;28;20373;-38
2022/08/05 21:43:18;;;;;;;3.25;1.10;;;17.20;62.40;;;;;;5054770;28;20017;-38
2022/08/05 21:45:44;;;;;;;3.15;0.82;;;17.20;62.60;;;;;;5054821;28;20524;-38
2022/08/05 21:48:10;;;;;;;4.57;0.93;;;17.10;62.90;;;;;;5055081;28;20396;-39
2022/08/05 21:50:35;;;;;;;3.92;1.48;;;17.10;63.10;;;;;;5054573;28;20022;-39
2022/08/05 21:53:02;;;;;;;6.13;1.42;;;16.90;63.50;;;;;;5054700;28;20033;-44
2022/08/05 21:55:27;;;;;;;1.33;1.15;;;16.90;64.00;;;;;;5054747;28;20025;-39
2022/08/05 21:57:53;;;;;;;4.20;1.25;;;16.80;64.10;;;;;;5053839;28;20036;-40
2022/08/05 22:00:19;;;;;;;2.75;1.25;;;16.80;64.60;;;;;;5054572;28;20021;-39
2022/08/05 22:02:44;;;;;;;2.75;1.35;;;16.80;64.90;;;;;;5053045;28;20436;-38
2022/08/05 22:05:11;;;;;;;2.10;1.48;;;16.70;65.30;;;;;;5054257;28;20032;-40
2022/08/05 22:07:38;;;;;;;4.93;1.73;;;16.60;65.20;;;;;;5054360;28;20493;-42
2022/08/05 22:10:05;;;;;;;3.80;1.60;;;16.60;65.60;;;;;;5054380;28;20116;-38
2022/08/05 22:12:31;;;;;;;2.67;1.60;;;16.50;65.50;;;;;;5054397;28;20396;-38
2022/08/05 22:14:57;;;;;;;2.25;1.13;;;16.50;65.90;;;;;;5053963;28;20025;-38
2022/08/05 22:17:23;;;;;;;7.28;1.83;;;16.50;66.10;;;;;;5054083;28;20020;-38
2022/08/05 22:19:49;;;;;;;1.65;1.30;;;16.50;66.30;;;;;;5052797;28;20381;-38
2022/08/05 22:22:14;;;;;;;2.97;1.52;;;16.40;66.30;;;;;;5054209;28;20036;-39
2022/08/05 22:27:41;;;;;;;3.17;1.83;;;16.30;66.60;;;;;;5054352;28;20091;-39
2022/08/05 22:30:12;;;;;;;3.25;1.25;;;16.30;66.60;;;;;;5053856;28;20025;-38
2022/08/05 22:32:38;;;;;;;;;;;16.30;66.80;;;;;;5054336;28;20488;-38
2022/08/05 22:35:04;;;;;;;5.70;1.48;;;16.30;66.80;;;;;;5053531;28;19942;-38
2022/08/05 22:37:29;;;;;;;2.83;1.77;;;16.20;66.80;;;;;;5053686;28;20154;-40
2022/08/05 22:39:55;;;;;;;2.40;1.42;;;16.20;67.10;;;;;;5053491;28;20104;-39
2022/08/05 22:42:21;;;;;;;1.92;1.33;;;16.10;67.10;;;;;;5056654;28;20099;-39
2022/08/05 22:44:47;;;;;;;2.28;1.60;;;16.10;67.20;;;;;;5059072;28;20029;-38
2022/08/05 22:47:13;;;;;;;5.18;1.70;;;16.00;67.40;;;;;;5041694;28;20037;-41
2022/08/05 22:49:38;;;;;;;3.05;1.25;;;16.00;67.60;;;;;;5056361;28;20039;-40
2022/08/05 22:52:04;;;;;;;2.35;1.75;;;16.00;67.70;;;;;;5055734;28;20021;-40
2022/08/05 22:54:30;;;;;;;2.05;1.55;;;16.00;67.70;;;;;;5058098;28;20025;-39
2022/08/05 22:56:56;;;;;;;2.33;1.65;;;16.00;67.80;;;;;;5058855;28;20473;-40
2022/08/05 22:59:22;;;;;;;1.67;1.40;;;15.90;67.90;;;;;;5058664;28;20404;-39
2022/08/05 23:01:48;;;;;;;1.92;1.17;;;15.80;68.20;;;;;;5057470;28;20025;-40
2022/08/05 23:04:13;;;;;;;6.72;1.55;;;15.80;68.50;;;;;;5058461;28;20078;-41
2022/08/05 23:06:39;;;;;;;2.53;1.63;;;15.80;68.50;;;;;;5059129;28;20017;-40
2022/08/05 23:09:05;;;;;;;2.47;1.55;;;15.80;68.40;;;;;;5058147;28;20025;-40
2022/08/05 23:11:30;;;;;;;5.55;1.33;;;15.80;68.60;;;;;;5057209;28;20084;-40
2022/08/05 23:13:56;;;;;;;2.97;1.63;;;15.80;68.50;;;;;;5055184;28;20051;-40
2022/08/05 23:17:22;;;;;;;3.85;1.60;;;15.70;68.60;;;;;;5056326;28;20035;-40
2022/08/05 23:19:10;;;;;;;3.70;1.40;;;15.70;68.80;;;;;;5057845;28;20426;-39
2022/08/05 23:21:36;;;;;;;5.15;1.75;;;15.70;69.00;;;;;;5057998;28;20362;-40
2022/08/05 23:24:02;;;;;;;8.32;1.45;;;15.70;69.10;;;;;;5056446;28;20057;-39
2022/08/05 23:26:28;;;;;;;5.13;1.65;;;15.60;69.30;;;;;;5057666;28;20025;-40
2022/08/05 23:28:53;;;;;;;2.65;1.30;;;15.60;69.10;;;;;;5053419;28;20468;-39
2022/08/05 23:31:19;;;;;;;5.30;1.85;;;15.60;69.30;;;;;;5053090;28;20036;-38
2022/08/05 23:33:45;;;;;;;2.03;1.77;;;15.60;69.30;;;;;;5053956;28;20025;-38
2022/08/05 23:36:11;;;;;;;1.98;1.23;;;15.60;69.40;;;;;;5057852;28;20099;-42
2022/08/05 23:38:38;;;;;;;2.10;1.10;;;15.50;69.20;;;;;;5057494;28;20024;-40
2022/08/05 23:41:03;;;;;;;5.55;1.52;;;15.50;69.60;;;;;;5057958;28;20048;-40
2022/08/05 23:43:29;;;;;;;3.55;1.48;;;15.50;69.60;;;;;;5058149;28;20021;-40
2022/08/05 23:45:55;;;;;;;6.85;1.55;;;15.40;69.50;;;;;;5054902;28;20021;-38
2022/08/05 23:48:20;;;;;;;5.22;1.73;;;15.30;70.10;;;;;;5053087;28;20036;-39
2022/08/05 23:50:46;;;;;;;2.03;1.25;;;15.30;70.30;;;;;;5053127;28;20032;-38
2022/08/05 23:53:12;;;;;;;2.35;1.38;;;15.20;70.90;;;;;;5053601;28;20400;-39
2022/08/05 23:55:37;;;;;;;4.20;1.23;;;15.00;71.60;;;;;;5052685;28;20040;-39
2022/08/05 23:58:03;;;;;;;2.47;1.65;;;14.80;72.20;;;;;;5052802;28;20044;-39
